createdAt,value
2023-04-04T00:00:45.779Z,6.57
2023-04-04T00:03:31.873Z,11.98
2023-04-04T00:06:30.042Z,10.23
2023-04-04T00:09:15.824Z,10.10
2023-04-04T00:12:01.033Z,10.05
2023-04-04T00:14:47.149Z,8.07
2023-04-04T00:17:32.708Z,5.53
2023-04-04T00:20:18.057Z,9.27
2023-04-04T00:23:03.676Z,10.75
2023-04-04T00:25:53.031Z,7.45
2023-04-04T00:28:41.094Z,9.40
2023-04-04T00:31:27.474Z,7.53
2023-04-04T00:34:13.779Z,6.47
2023-04-04T00:37:02.448Z,5.53
2023-04-04T00:39:48.395Z,8.30
2023-04-04T00:42:35.098Z,11.45
2023-04-04T00:45:20.480Z,8.55
2023-04-04T00:48:07.045Z,5.80
2023-04-04T00:50:53.075Z,10.98
2023-04-04T00:53:38.491Z,6.85
2023-04-04T00:56:25.398Z,7.18
2023-04-04T00:59:11.132Z,7.00
2023-04-04T01:01:57.486Z,7.38
2023-04-04T01:04:44.108Z,7.40
2023-04-04T01:07:29.318Z,8.65
2023-04-04T01:10:18.373Z,8.48
2023-04-04T01:13:04.929Z,6.97
2023-04-04T01:15:50.962Z,8.77
2023-04-04T01:18:38.431Z,5.88
2023-04-04T01:21:24.656Z,10.98
2023-04-04T01:24:14.503Z,7.75
2023-04-04T01:27:05.443Z,10.63
2023-04-04T01:29:54.554Z,7.43
2023-04-04T01:32:40.450Z,9.90
2023-04-04T01:35:56.131Z,8.43
2023-04-04T01:38:59.499Z,8.70
2023-04-04T01:41:51.200Z,8.98
2023-04-04T01:44:36.960Z,9.75
2023-04-04T01:47:23.647Z,8.95
2023-04-04T01:50:11.061Z,7.60
2023-04-04T01:52:56.480Z,7.60
2023-04-04T01:55:42.427Z,8.93
2023-04-04T01:58:28.227Z,9.20
2023-04-04T02:01:14.263Z,6.35
2023-04-04T02:03:59.684Z,7.45
2023-04-04T02:06:56.158Z,11.40
2023-04-04T02:09:41.929Z,11.68
2023-04-04T02:12:27.699Z,10.45
2023-04-04T02:15:13.626Z,6.35
2023-04-04T02:18:02.187Z,5.70
2023-04-04T02:20:55.908Z,8.25
2023-04-04T02:23:44.453Z,7.45
2023-04-04T02:26:30.010Z,11.27
2023-04-04T02:29:15.396Z,7.70
2023-04-04T02:32:02.240Z,7.50
2023-04-04T02:34:48.195Z,8.20
2023-04-04T02:37:33.603Z,8.90
2023-04-04T02:40:20.451Z,10.63
2023-04-04T02:43:05.964Z,7.03
2023-04-04T02:45:51.829Z,11.55
2023-04-04T02:48:45.586Z,8.20
2023-04-04T02:51:31.205Z,12.70
2023-04-04T02:54:17.386Z,12.48
2023-04-04T02:57:04.865Z,7.18
2023-04-04T02:59:50.745Z,10.40
2023-04-04T03:02:36.520Z,12.48
2023-04-04T03:05:25.156Z,10.80
2023-04-04T03:08:11.070Z,9.23
2023-04-04T03:10:56.399Z,10.70
2023-04-04T03:13:44.232Z,14.05
2023-04-04T03:16:29.908Z,7.50
2023-04-04T03:19:16.227Z,7.22
2023-04-04T03:22:01.855Z,10.50
2023-04-04T03:24:49.980Z,6.38
2023-04-04T03:27:35.564Z,8.60
2023-04-04T03:30:24.009Z,7.30
2023-04-04T03:33:09.902Z,8.63
2023-04-04T03:35:56.145Z,9.65
2023-04-04T03:38:41.843Z,9.25
2023-04-04T03:41:28.693Z,8.65
2023-04-04T03:44:14.264Z,8.43
2023-04-04T03:46:59.931Z,11.43
2023-04-04T03:49:45.533Z,14.68
2023-04-04T03:52:32.563Z,15.43
2023-04-04T03:55:18.373Z,10.73
2023-04-04T03:58:04.358Z,14.98
2023-04-04T04:00:50.007Z,10.77
2023-04-04T04:03:36.074Z,8.50
2023-04-04T04:06:21.177Z,7.82
2023-04-04T04:09:08.230Z,8.98
2023-04-04T04:11:54.265Z,12.40
2023-04-04T04:14:39.900Z,12.02
2023-04-04T04:17:27.482Z,11.02
2023-04-04T04:20:16.358Z,9.13
2023-04-04T04:23:06.736Z,11.98
2023-04-04T04:25:52.012Z,10.98
2023-04-04T04:28:40.440Z,10.70
2023-04-04T04:31:33.960Z,11.95
2023-04-04T04:34:19.976Z,8.02
2023-04-04T04:37:06.741Z,9.70
2023-04-04T04:40:01.978Z,9.25
2023-04-04T04:42:59.389Z,10.82
2023-04-04T04:45:44.639Z,9.75
2023-04-04T04:48:31.298Z,8.25
2023-04-04T04:51:18.601Z,12.95
2023-04-04T04:54:09.147Z,10.18
2023-04-04T04:56:56.181Z,12.27
2023-04-04T04:59:41.704Z,13.38
2023-04-04T05:02:29.618Z,11.73
2023-04-04T05:05:15.648Z,10.55
2023-04-04T05:08:02.925Z,11.93
2023-04-04T05:10:49.670Z,11.98
2023-04-04T05:13:36.341Z,9.32
2023-04-04T05:16:23.216Z,8.18
2023-04-04T05:19:10.615Z,16.00
2023-04-04T05:22:03.327Z,12.07
2023-04-04T05:24:57.418Z,9.15
2023-04-04T05:27:48.948Z,11.05
2023-04-04T05:30:39.602Z,8.18
2023-04-04T05:33:32.564Z,12.52
2023-04-04T05:39:18.906Z,9.48
2023-04-04T05:42:16.905Z,12.48
2023-04-04T05:45:08.064Z,12.75
2023-04-04T05:47:53.211Z,11.27
2023-04-04T05:50:46.408Z,13.35
2023-04-04T05:53:32.546Z,9.85
2023-04-04T05:56:18.871Z,11.35
2023-04-04T05:59:04.833Z,11.68
2023-04-04T06:01:54.873Z,12.23
2023-04-04T06:04:41.102Z,10.30
2023-04-04T06:07:28.747Z,8.27
2023-04-04T06:10:16.753Z,9.95
2023-04-04T06:13:02.684Z,11.82
2023-04-04T06:15:49.228Z,10.38
2023-04-04T06:18:38.894Z,9.35
2023-04-04T06:21:24.983Z,9.93
2023-04-04T06:24:11.752Z,10.70
2023-04-04T06:26:57.953Z,9.60
2023-04-04T06:29:45.688Z,11.20
2023-04-04T06:32:38.896Z,10.90
2023-04-04T06:35:25.697Z,10.80
2023-04-04T06:38:19.020Z,9.00
2023-04-04T06:41:07.389Z,7.53
2023-04-04T06:43:53.092Z,6.80
2023-04-04T06:46:39.293Z,12.90
2023-04-04T06:49:26.708Z,10.60
2023-04-04T06:52:12.532Z,14.68
2023-04-04T06:54:57.963Z,9.50
2023-04-04T06:57:43.174Z,9.60
2023-04-04T07:00:28.942Z,10.73
2023-04-04T07:03:14.316Z,12.77
2023-04-04T07:06:04.003Z,8.05
2023-04-04T07:08:50.018Z,10.57
2023-04-04T07:11:35.549Z,13.50
2023-04-04T07:14:25.037Z,8.20
2023-04-04T07:17:23.605Z,9.88
2023-04-04T07:20:10.851Z,8.60
2023-04-04T07:22:56.520Z,11.75
2023-04-04T07:25:43.863Z,13.10
2023-04-04T07:28:29.787Z,9.85
2023-04-04T07:31:16.827Z,11.40
2023-04-04T07:34:05.236Z,6.85
2023-04-04T07:36:50.405Z,9.50
2023-04-04T07:39:36.875Z,9.48
2023-04-04T07:42:25.522Z,5.95
2023-04-04T07:45:11.563Z,9.07
2023-04-04T07:47:57.071Z,6.80
2023-04-04T07:50:42.480Z,7.68
2023-04-04T07:53:28.313Z,9.13
2023-04-04T07:56:13.559Z,9.45
2023-04-04T07:58:59.325Z,9.75
2023-04-04T08:01:46.231Z,8.32
2023-04-04T08:04:32.086Z,12.32
2023-04-04T08:07:17.322Z,8.43
2023-04-04T08:10:03.177Z,6.53
2023-04-04T08:12:53.780Z,8.48
2023-04-04T08:15:39.824Z,6.65
2023-04-04T08:18:25.230Z,8.52
2023-04-04T08:21:10.693Z,7.80
2023-04-04T08:23:56.310Z,11.48
2023-04-04T08:26:43.553Z,8.48
2023-04-04T08:29:33.308Z,6.13
2023-04-04T08:32:24.152Z,6.43
2023-04-04T08:35:09.654Z,5.75
2023-04-04T08:37:55.829Z,9.82
2023-04-04T08:40:41.277Z,6.72
2023-04-04T08:43:27.937Z,7.47
2023-04-04T08:46:15.686Z,9.52
2023-04-04T08:49:04.409Z,4.70
2023-04-04T08:51:52.356Z,6.47
2023-04-04T08:54:41.822Z,6.85
2023-04-04T08:57:27.383Z,7.78
2023-04-04T09:00:14.778Z,13.30
2023-04-04T09:03:24.430Z,9.43
2023-04-04T09:06:12.823Z,8.45
2023-04-04T09:09:00.292Z,9.23
2023-04-04T09:11:47.329Z,9.45
2023-04-04T09:14:33.587Z,8.15
2023-04-04T09:17:28.446Z,6.35
2023-04-04T09:20:37.137Z,9.73
2023-04-04T09:23:23.904Z,9.45
2023-04-04T09:26:09.317Z,8.48
2023-04-04T09:28:55.642Z,8.02
2023-04-04T09:31:42.422Z,8.63
2023-04-04T09:34:30.487Z,7.32
2023-04-04T09:37:17.721Z,6.35
2023-04-04T09:40:05.498Z,10.52
2023-04-04T09:42:54.694Z,6.53
2023-04-04T09:45:44.905Z,7.55
2023-04-04T09:48:33.012Z,7.85
2023-04-04T09:51:18.633Z,6.65
2023-04-04T09:54:09.107Z,7.05
2023-04-04T09:56:59.594Z,7.03
2023-04-04T09:59:47.075Z,9.27
2023-04-04T10:02:32.746Z,10.23
2023-04-04T10:05:23.168Z,5.70
2023-04-04T10:08:18.640Z,5.57
2023-04-04T10:13:57.526Z,6.88
2023-04-04T10:16:47.087Z,5.50
2023-04-04T10:19:32.746Z,5.75
2023-04-04T10:22:21.386Z,9.43
2023-04-04T10:25:08.096Z,5.78
2023-04-04T10:27:53.607Z,6.15
2023-04-04T10:30:59.343Z,6.55
2023-04-04T10:34:19.280Z,5.75
2023-04-04T10:37:13.323Z,8.50
2023-04-04T10:40:09.156Z,5.95
2023-04-04T10:42:56.884Z,8.27
2023-04-04T10:45:43.003Z,5.80
2023-04-04T10:48:29.284Z,7.13
2023-04-04T10:51:15.781Z,6.47
2023-04-04T10:54:01.784Z,6.25
2023-04-04T10:56:48.187Z,8.98
2023-04-04T10:59:34.266Z,6.28
2023-04-04T11:02:50.376Z,11.60
2023-04-04T11:05:42.100Z,7.50
2023-04-04T11:08:29.147Z,8.40
2023-04-04T11:11:22.519Z,6.68
2023-04-04T11:14:11.610Z,8.38
2023-04-04T11:16:59.086Z,6.32
2023-04-04T11:19:59.930Z,8.23
2023-04-04T11:22:45.811Z,7.30
2023-04-04T11:25:32.290Z,7.65
2023-04-04T11:28:34.035Z,7.03
2023-04-04T11:31:20.843Z,6.82
2023-04-04T11:34:14.842Z,8.80
2023-04-04T11:37:16.319Z,6.70
2023-04-04T11:40:12.094Z,8.73
2023-04-04T11:43:03.313Z,8.55
2023-04-04T11:45:48.912Z,6.07
2023-04-04T11:48:34.627Z,6.07
2023-04-04T11:51:25.892Z,9.48
2023-04-04T11:54:17.955Z,8.02
2023-04-04T11:57:06.457Z,5.40
2023-04-04T11:59:52.705Z,6.15
2023-04-04T12:02:39.676Z,6.57
2023-04-04T12:05:27.174Z,8.05
2023-04-04T12:08:14.539Z,5.22
2023-04-04T12:11:06.946Z,5.85
2023-04-04T12:13:52.309Z,8.77
2023-04-04T12:16:38.802Z,6.38
2023-04-04T12:19:29.140Z,11.40
2023-04-04T12:22:15.028Z,6.80
2023-04-04T12:25:00.426Z,5.75
2023-04-04T12:27:47.311Z,8.32
2023-04-04T12:30:33.226Z,4.78
2023-04-04T12:33:19.304Z,6.07
2023-04-04T12:36:06.586Z,8.15
2023-04-04T12:39:05.804Z,6.95
2023-04-04T12:41:53.608Z,5.10
2023-04-04T12:44:39.985Z,5.50
2023-04-04T12:47:28.638Z,5.03
2023-04-04T12:50:22.473Z,4.80
2023-04-04T12:53:24.291Z,4.47
2023-04-04T12:56:14.138Z,8.20
2023-04-04T12:59:03.776Z,6.75
2023-04-04T13:01:49.368Z,4.10
2023-04-04T13:04:35.183Z,5.55
2023-04-04T13:07:25.873Z,7.80
2023-04-04T13:10:14.688Z,5.03
2023-04-04T13:13:01.600Z,6.22
2023-04-04T13:15:54.418Z,6.20
2023-04-04T13:18:43.286Z,5.70
2023-04-04T13:21:29.363Z,4.47
2023-04-04T13:24:17.864Z,8.38
2023-04-04T13:27:03.219Z,5.93
2023-04-04T13:29:48.884Z,6.25
2023-04-04T13:32:34.428Z,8.50
2023-04-04T13:35:19.910Z,6.07
2023-04-04T13:38:08.079Z,5.18
2023-04-04T13:40:54.397Z,5.75
2023-04-04T13:43:39.894Z,6.72
2023-04-04T13:46:25.422Z,5.95
2023-04-04T13:49:11.074Z,6.55
2023-04-04T13:51:56.488Z,6.25
2023-04-04T13:54:41.825Z,5.18
2023-04-04T13:57:28.709Z,7.65
2023-04-04T14:00:17.241Z,5.38
2023-04-04T14:03:03.298Z,5.93
2023-04-04T14:05:48.590Z,4.30
2023-04-04T14:08:34.959Z,5.15
2023-04-04T14:11:20.225Z,6.05
2023-04-04T14:14:12.062Z,7.00
2023-04-04T14:16:57.394Z,6.95
2023-04-04T14:19:43.590Z,8.15
2023-04-04T14:22:28.706Z,7.65
2023-04-04T14:25:14.184Z,5.35
2023-04-04T14:27:59.571Z,6.03
2023-04-04T14:30:45.421Z,4.45
2023-04-04T14:33:33.427Z,7.03
2023-04-04T14:36:26.123Z,6.78
2023-04-04T14:39:11.773Z,7.10
2023-04-04T14:41:57.282Z,6.35
2023-04-04T14:44:42.783Z,7.00
2023-04-04T14:47:28.216Z,4.57
2023-04-04T14:50:13.689Z,6.38
2023-04-04T14:53:01.950Z,9.32
2023-04-04T14:55:47.354Z,6.97
2023-04-04T14:58:32.872Z,7.20
2023-04-04T15:01:21.375Z,7.47
2023-04-04T15:04:10.222Z,8.07
2023-04-04T15:07:00.750Z,7.90
2023-04-04T15:09:46.401Z,6.15
2023-04-04T15:12:31.536Z,11.27
2023-04-04T15:15:17.473Z,6.97
2023-04-04T15:18:05.663Z,8.57
2023-04-04T15:20:51.142Z,5.25
2023-04-04T15:23:36.855Z,6.65
2023-04-04T15:26:28.404Z,6.25
2023-04-04T15:29:38.627Z,6.70
2023-04-04T15:32:24.451Z,7.35
2023-04-04T15:35:21.107Z,6.57
2023-04-04T15:38:06.673Z,9.82
2023-04-04T15:40:51.955Z,10.25
2023-04-04T15:43:38.126Z,7.85
2023-04-04T15:46:23.666Z,8.27
2023-04-04T15:49:09.075Z,5.78
2023-04-04T15:51:54.960Z,6.40
2023-04-04T15:54:42.449Z,8.05
2023-04-04T15:57:32.199Z,7.43
2023-04-04T16:00:18.006Z,7.45
2023-04-04T16:03:03.303Z,9.90
2023-04-04T16:05:48.926Z,6.22
2023-04-04T16:08:34.558Z,7.80
2023-04-04T16:11:20.204Z,6.85
2023-04-04T16:14:08.954Z,7.22
2023-04-04T16:16:54.685Z,6.60
2023-04-04T16:19:39.849Z,8.80
2023-04-04T16:22:25.590Z,10.40
2023-04-04T16:25:11.091Z,7.97
2023-04-04T16:27:59.063Z,9.80
2023-04-04T16:30:44.385Z,8.02
2023-04-04T16:33:30.363Z,7.05
2023-04-04T16:36:18.466Z,6.40
2023-04-04T16:39:04.200Z,7.97
2023-04-04T16:41:49.789Z,10.00
2023-04-04T16:44:35.208Z,6.85
2023-04-04T16:47:21.079Z,8.60
2023-04-04T16:50:07.360Z,7.03
2023-04-04T16:52:52.976Z,10.00
2023-04-04T16:55:38.333Z,9.68
2023-04-04T16:58:23.845Z,10.05
2023-04-04T17:01:12.369Z,9.27
2023-04-04T17:03:58.963Z,9.23
2023-04-04T17:06:45.973Z,10.13
2023-04-04T17:09:31.631Z,6.85
2023-04-04T17:12:17.207Z,9.35
2023-04-04T17:15:04.024Z,8.77
2023-04-04T17:17:49.520Z,10.05
2023-04-04T17:20:34.711Z,8.82
2023-04-04T17:23:20.370Z,13.02
2023-04-04T17:26:06.930Z,21.20
2023-04-04T17:28:52.655Z,8.48
2023-04-04T17:31:39.139Z,10.20
2023-04-04T17:34:25.335Z,8.15
2023-04-04T17:37:11.660Z,9.23
2023-04-04T17:39:59.308Z,8.68
2023-04-04T17:42:44.723Z,9.30
2023-04-04T17:45:30.101Z,9.85
2023-04-04T17:48:15.490Z,10.30
2023-04-04T17:51:01.119Z,8.80
2023-04-04T17:53:47.015Z,12.18
2023-04-04T17:56:33.937Z,8.57
2023-04-04T17:59:24.679Z,11.30
2023-04-04T18:02:10.695Z,13.10
2023-04-04T18:04:57.054Z,13.32
2023-04-04T18:07:45.166Z,10.45
2023-04-04T18:10:31.264Z,11.55
2023-04-04T18:13:16.657Z,9.65
2023-04-04T18:16:05.983Z,12.18
2023-04-04T18:18:51.837Z,8.70
2023-04-04T18:21:38.072Z,10.50
2023-04-04T18:24:26.108Z,8.48
2023-04-04T18:27:11.654Z,9.52
2023-04-04T18:29:57.265Z,9.93
2023-04-04T18:32:42.827Z,10.38
2023-04-04T18:35:28.588Z,11.63
2023-04-04T18:38:15.967Z,12.65
2023-04-04T18:41:01.593Z,15.68
2023-04-04T18:43:47.145Z,12.48
2023-04-04T18:46:32.738Z,10.18
2023-04-04T18:49:18.126Z,10.95
2023-04-04T18:52:06.758Z,11.88
2023-04-04T18:54:52.184Z,16.10
2023-04-04T18:57:38.477Z,15.35
2023-04-04T19:00:24.385Z,16.65
2023-04-04T19:03:11.830Z,18.40
2023-04-04T19:05:59.662Z,12.63
2023-04-04T19:08:45.291Z,14.00
2023-04-04T19:11:33.447Z,12.40
2023-04-04T19:14:19.549Z,16.30
2023-04-04T19:17:05.427Z,17.38
2023-04-04T19:19:52.015Z,9.43
2023-04-04T19:22:37.686Z,14.23
2023-04-04T19:25:23.350Z,10.93
2023-04-04T19:28:09.873Z,17.75
2023-04-04T19:30:55.533Z,14.70
2023-04-04T19:33:41.090Z,10.57
2023-04-04T19:36:27.858Z,9.77
2023-04-04T19:39:19.551Z,9.45
2023-04-04T19:42:08.874Z,15.60
2023-04-04T19:44:54.548Z,13.52
2023-04-04T19:47:40.407Z,16.33
2023-04-04T19:50:38.560Z,13.18
2023-04-04T19:53:28.061Z,14.63
2023-04-04T19:56:18.064Z,11.93
2023-04-04T19:59:08.124Z,13.45
2023-04-04T20:02:00.657Z,15.48
2023-04-04T20:04:47.104Z,12.43
2023-04-04T20:07:32.436Z,12.75
2023-04-04T20:10:42.496Z,14.00
2023-04-04T20:13:27.998Z,17.63
2023-04-04T20:16:15.108Z,16.33
2023-04-04T20:19:02.863Z,13.68
2023-04-04T20:21:49.140Z,13.48
2023-04-04T20:24:34.892Z,14.68
2023-04-04T20:27:27.834Z,16.30
2023-04-04T20:30:13.473Z,13.68
2023-04-04T20:32:58.812Z,15.48
2023-04-04T20:35:46.345Z,12.70
2023-04-04T20:38:32.014Z,16.40
2023-04-04T20:41:20.684Z,16.13
2023-04-04T20:44:20.116Z,17.02
2023-04-04T20:47:07.665Z,15.15
2023-04-04T20:49:53.491Z,13.65
2023-04-04T20:52:39.445Z,14.70
2023-04-04T20:55:27.598Z,15.82
2023-04-04T20:58:28.168Z,15.50
2023-04-04T21:01:41.304Z,15.15
2023-04-04T21:04:30.024Z,15.48
2023-04-04T21:07:36.041Z,18.15
2023-04-04T21:10:23.682Z,15.13
2023-04-04T21:13:09.229Z,14.77
2023-04-04T21:16:04.534Z,16.38
2023-04-04T21:21:43.220Z,13.45
2023-04-04T21:24:34.280Z,16.75
2023-04-04T21:27:36.768Z,15.73
2023-04-04T21:30:43.988Z,18.42
2023-04-04T21:33:29.304Z,17.08
2023-04-04T21:36:23.907Z,18.25
2023-04-04T21:39:14.646Z,20.23
2023-04-04T21:42:05.447Z,16.75
2023-04-04T21:44:53.158Z,18.20
2023-04-04T21:47:38.868Z,15.57
2023-04-04T21:50:25.400Z,18.00
2023-04-04T21:53:10.933Z,18.83
2023-04-04T21:55:56.421Z,19.90
2023-04-04T21:58:42.372Z,18.08
2023-04-04T22:01:28.902Z,18.92
2023-04-04T22:04:14.271Z,16.88
2023-04-04T22:06:59.890Z,16.30
2023-04-04T22:09:46.481Z,15.90
2023-04-04T22:12:33.139Z,20.83
2023-04-04T22:15:18.852Z,17.83
2023-04-04T22:18:05.941Z,20.60
2023-04-04T22:21:03.571Z,15.43
2023-04-04T22:23:51.647Z,17.40
2023-04-04T22:26:37.185Z,21.63
2023-04-04T22:29:22.640Z,17.23
2023-04-04T22:32:08.055Z,15.98
2023-04-04T22:34:54.344Z,17.17
2023-04-04T22:37:43.653Z,13.75
2023-04-04T22:40:29.993Z,19.88
2023-04-04T22:43:16.038Z,19.48
2023-04-04T22:46:01.748Z,19.33
2023-04-04T22:48:47.541Z,21.52
2023-04-04T22:51:35.108Z,16.13
2023-04-04T22:54:20.944Z,14.63
2023-04-04T22:57:06.076Z,16.75
2023-04-04T22:59:51.900Z,16.73
2023-04-04T23:02:56.133Z,17.98
2023-04-04T23:05:42.286Z,19.48
2023-04-04T23:08:27.728Z,17.02
2023-04-04T23:11:13.387Z,19.88
2023-04-04T23:13:59.229Z,23.23
2023-04-04T23:16:44.417Z,17.13
2023-04-04T23:19:30.458Z,20.15
2023-04-04T23:22:15.772Z,18.83
2023-04-04T23:25:01.199Z,18.58
2023-04-04T23:27:46.433Z,21.33
2023-04-04T23:30:32.187Z,19.10
2023-04-04T23:33:22.767Z,23.95
2023-04-04T23:36:12.294Z,18.40
2023-04-04T23:38:57.646Z,16.88
2023-04-04T23:41:43.664Z,21.83
2023-04-04T23:44:29.077Z,22.40
2023-04-04T23:47:17.282Z,20.05
2023-04-04T23:50:03.019Z,21.08
2023-04-04T23:52:48.447Z,20.63
2023-04-04T23:55:34.309Z,22.38
2023-04-04T23:58:20.050Z,16.98
